Time;durP1;ratioP1;P1;durP2;ratioP2;P2;SDS_P1;SDS_P2;PMS_P1;PMS_P2;Temp;Humidity;BMP_temperature;BMP_pressure;BME280_temperature;BME280_humidity;BME280_pressure;Samples;Min_cycle;Max_cycle;Signal;HPM_P1;HPM_P2
2022/07/17 00:02:19;;;;;;;11.33;3.67;;;18.70;13.00;;;;;;5054564;28;20481;-71
2022/07/17 00:04:47;;;;;;;6.70;3.27;;;18.70;12.90;;;;;;5067653;28;20492;-71
2022/07/17 00:07:14;;;;;;;6.20;3.80;;;18.70;13.20;;;;;;5067489;28;20469;-71
2022/07/17 00:09:41;;;;;;;7.80;3.70;;;18.60;13.10;;;;;;5051847;28;20454;-71
2022/07/17 00:12:08;;;;;;;6.80;3.63;;;18.60;13.10;;;;;;5045868;28;20469;-71
2022/07/17 00:14:34;;;;;;;6.20;3.70;;;18.60;13.10;;;;;;5047707;28;20468;-71
2022/07/17 00:17:01;;;;;;;8.30;3.50;;;18.60;13.00;;;;;;5047812;28;20477;-71
2022/07/17 00:19:28;;;;;;;9.20;3.30;;;18.50;13.20;;;;;;5049986;28;20458;-71
2022/07/17 00:21:56;;;;;;;8.83;3.17;;;18.50;13.10;;;;;;5060848;28;20468;-71
2022/07/17 00:24:23;;;;;;;6.63;3.67;;;18.50;13.30;;;;;;5047316;28;20488;-71
2022/07/17 00:26:51;;;;;;;5.67;3.37;;;18.40;13.20;;;;;;5064626;28;20547;-71
2022/07/17 00:29:18;;;;;;;7.43;4.07;;;18.40;13.30;;;;;;5058690;28;20458;-71
2022/07/17 00:31:45;;;;;;;7.60;3.37;;;18.40;13.30;;;;;;5046466;28;20485;-71
2022/07/17 00:34:12;;;;;;;6.10;3.23;;;18.30;13.40;;;;;;5046761;28;20457;-71
2022/07/17 00:36:39;;;;;;;8.90;3.10;;;18.30;13.60;;;;;;5046867;28;21002;-71
2022/07/17 00:39:07;;;;;;;6.23;3.80;;;18.30;14.00;;;;;;5059357;28;20827;-71
2022/07/17 00:41:34;;;;;;;5.77;3.30;;;18.20;13.60;;;;;;5061611;28;20512;-71
2022/07/17 00:44:05;;;;;;;6.97;4.20;;;18.20;13.70;;;;;;5046528;28;20458;-71
2022/07/17 00:46:31;;;;;;;9.90;4.13;;;18.20;13.70;;;;;;5046451;28;20482;-71
2022/07/17 00:48:58;;;;;;;6.67;3.57;;;18.20;13.80;;;;;;5053516;28;20461;-71
2022/07/17 00:51:25;;;;;;;5.47;3.10;;;18.20;13.80;;;;;;5067578;28;20491;-71
2022/07/17 00:53:53;;;;;;;7.57;3.80;;;18.10;14.20;;;;;;5063364;28;20979;-71
2022/07/17 00:56:23;;;;;;;6.87;3.57;;;18.10;14.30;;;;;;5050479;28;20478;-71
2022/07/17 00:58:50;;;;;;;6.23;3.77;;;18.00;14.30;;;;;;5053290;28;20462;-71
2022/07/17 01:01:17;;;;;;;6.13;3.80;;;18.00;14.50;;;;;;5055407;28;20473;-71
2022/07/17 01:03:45;;;;;;;7.20;3.37;;;17.90;14.40;;;;;;5056159;28;20469;-71
2022/07/17 01:06:11;;;;;;;6.20;3.37;;;17.90;14.60;;;;;;5050610;28;20481;-71
2022/07/17 01:08:39;;;;;;;5.73;3.30;;;17.80;14.90;;;;;;5056480;28;20467;-71
2022/07/17 01:11:08;;;;;;;7.87;4.07;;;17.80;14.90;;;;;;5057640;28;20912;-71
2022/07/17 01:13:37;;;;;;;6.20;2.90;;;17.80;14.80;;;;;;5071312;28;20461;-71
2022/07/17 01:16:04;;;;;;;7.50;4.70;;;17.70;15.00;;;;;;5054441;28;20484;-71
2022/07/17 01:18:31;;;;;;;9.17;3.37;;;17.70;15.00;;;;;;5058551;28;20461;-71
2022/07/17 01:21:04;;;;;;;6.73;3.83;;;17.70;15.10;;;;;;5050888;28;20496;-71
2022/07/17 01:23:31;;;;;;;5.80;3.60;;;17.70;15.30;;;;;;5050771;28;20464;-71
2022/07/17 01:25:58;;;;;;;5.77;3.80;;;17.60;15.30;;;;;;5050118;28;20490;-71
2022/07/17 01:28:25;;;;;;;6.17;3.47;;;17.60;15.50;;;;;;5054526;28;20467;-70
2022/07/17 01:30:52;;;;;;;10.13;3.93;;;17.60;15.70;;;;;;5059053;28;20466;-71
2022/07/17 01:33:20;;;;;;;5.67;3.37;;;17.60;15.30;;;;;;5050609;28;20457;-71
2022/07/17 01:35:47;;;;;;;5.57;3.70;;;17.60;15.30;;;;;;5050303;28;20477;-71
2022/07/17 01:38:15;;;;;;;6.60;3.73;;;17.60;15.40;;;;;;5049958;28;20959;-71
2022/07/17 01:40:42;;;;;;;6.93;3.20;;;17.60;15.40;;;;;;5049934;28;21069;-71
2022/07/17 01:43:08;;;;;;;7.23;4.77;;;17.60;15.40;;;;;;5050570;28;21009;-70
2022/07/17 01:45:35;;;;;;;8.07;4.20;;;17.50;15.50;;;;;;5058985;28;20495;-71
2022/07/17 01:48:02;;;;;;;8.77;4.50;;;17.50;15.50;;;;;;5058441;28;20477;-71
2022/07/17 01:50:29;;;;;;;14.07;5.37;;;17.50;15.50;;;;;;5064587;28;20464;-71
2022/07/17 01:52:56;;;;;;;6.77;4.07;;;17.50;15.80;;;;;;5057268;28;20616;-71
2022/07/17 01:55:24;;;;;;;8.83;4.70;;;17.50;15.70;;;;;;5055183;28;20481;-71
2022/07/17 01:57:51;;;;;;;6.97;4.40;;;17.40;15.80;;;;;;5041267;28;20454;-70
2022/07/17 02:00:20;;;;;;;7.93;4.00;;;17.30;15.80;;;;;;5049263;28;20997;-70
2022/07/17 02:02:47;;;;;;;9.60;4.70;;;17.30;15.80;;;;;;5049470;28;20556;-71
2022/07/17 02:05:14;;;;;;;7.90;5.50;;;17.30;16.10;;;;;;5063024;28;20489;-71
2022/07/17 02:07:41;;;;;;;8.80;5.00;;;17.30;16.00;;;;;;5064214;28;20644;-71
2022/07/17 02:10:09;;;;;;;9.20;5.00;;;17.40;16.20;;;;;;5049492;28;20746;-71
2022/07/17 02:12:37;;;;;;;7.53;4.73;;;17.30;16.30;;;;;;5050462;28;20528;-71
2022/07/17 02:15:05;;;;;;;6.97;4.40;;;17.20;16.20;;;;;;5069737;28;20477;-70
2022/07/17 02:17:32;;;;;;;6.10;3.90;;;17.20;16.50;;;;;;5069716;28;20469;-71
2022/07/17 02:19:59;;;;;;;8.67;5.30;;;17.20;16.40;;;;;;5042859;28;20471;-71
2022/07/17 02:22:26;;;;;;;5.93;4.00;;;17.10;16.70;;;;;;5042724;28;20488;-71
2022/07/17 02:24:52;;;;;;;6.90;4.27;;;17.10;16.60;;;;;;5059075;28;20485;-71
2022/07/17 02:27:19;;;;;;;6.67;4.17;;;17.10;16.80;;;;;;5069437;28;20453;-71
2022/07/17 02:29:47;;;;;;;7.07;4.07;;;17.00;16.80;;;;;;5063338;28;20567;-71
2022/07/17 02:32:14;;;;;;;7.20;4.50;;;17.00;16.80;;;;;;5049066;28;20684;-71
2022/07/17 02:34:41;;;;;;;7.17;4.20;;;16.90;17.00;;;;;;5049519;28;20462;-71
2022/07/17 02:37:08;;;;;;;7.60;4.63;;;16.90;17.00;;;;;;5051513;28;20539;-70
2022/07/17 02:39:35;;;;;;;6.63;3.90;;;16.80;17.20;;;;;;5048846;28;20477;-71
2022/07/17 02:42:02;;;;;;;9.47;4.37;;;16.80;17.20;;;;;;5061674;28;20472;-71
2022/07/17 02:44:29;;;;;;;8.00;4.87;;;16.80;17.40;;;;;;5051606;28;20457;-70
2022/07/17 02:46:57;;;;;;;7.50;4.20;;;16.80;17.30;;;;;;5048663;28;20466;-71
2022/07/17 02:49:24;;;;;;;7.13;4.47;;;16.70;17.40;;;;;;5048729;28;20462;-71
2022/07/17 02:51:50;;;;;;;7.17;5.17;;;16.70;17.50;;;;;;5048155;28;20465;-71
2022/07/17 02:54:17;;;;;;;6.50;4.57;;;16.70;17.60;;;;;;5035797;28;20466;-71
2022/07/17 02:56:44;;;;;;;9.70;6.00;;;16.70;17.70;;;;;;5048875;28;20470;-70
2022/07/17 02:59:11;;;;;;;9.20;5.70;;;16.60;17.50;;;;;;5048855;28;20472;-71
2022/07/17 03:01:37;;;;;;;11.50;7.30;;;16.60;17.70;;;;;;5046451;28;20473;-71
2022/07/17 03:04:06;;;;;;;6.30;4.27;;;16.60;18.10;;;;;;5059829;28;20472;-71
2022/07/17 03:06:32;;;;;;;8.33;5.00;;;16.60;17.90;;;;;;5064350;28;20489;-71
2022/07/17 03:08:59;;;;;;;7.50;4.47;;;16.50;18.10;;;;;;5048418;28;20472;-71
2022/07/17 03:11:26;;;;;;;9.57;5.50;;;16.50;18.40;;;;;;5064005;28;20464;-71
2022/07/17 03:13:53;;;;;;;11.83;4.80;;;16.40;18.30;;;;;;5055869;28;20461;-71
2022/07/17 03:16:19;;;;;;;7.50;4.50;;;16.40;18.30;;;;;;5052916;28;20478;-70
2022/07/17 03:18:46;;;;;;;9.73;5.73;;;16.40;18.60;;;;;;5048696;28;20462;-70
2022/07/17 03:21:14;;;;;;;8.43;5.57;;;16.40;18.30;;;;;;5048540;28;20981;-71
2022/07/17 03:23:41;;;;;;;8.80;5.77;;;16.40;18.40;;;;;;5047005;28;20477;-70
2022/07/17 03:26:08;;;;;;;9.17;6.43;;;16.40;18.60;;;;;;5048106;28;20843;-71
2022/07/17 03:28:59;;;;;;;12.63;6.80;;;16.40;18.60;;;;;;5060671;28;20470;-71
2022/07/17 03:31:26;;;;;;;9.20;7.23;;;16.40;18.90;;;;;;5059003;28;20476;-70
2022/07/17 03:33:53;;;;;;;10.13;8.13;;;16.30;18.70;;;;;;5051835;28;20756;-70
2022/07/17 03:36:21;;;;;;;10.50;7.20;;;16.30;19.10;;;;;;5047959;28;20481;-70
2022/07/17 03:38:48;;;;;;;11.27;5.87;;;16.30;18.90;;;;;;5047959;28;20462;-71
2022/07/17 03:41:16;;;;;;;8.47;5.67;;;16.20;19.10;;;;;;5045744;28;20897;-71
2022/07/17 03:43:42;;;;;;;9.73;5.67;;;16.20;19.20;;;;;;5051785;28;20995;-71
2022/07/17 03:46:09;;;;;;;7.63;5.23;;;16.20;19.10;;;;;;5059724;28;20503;-71
2022/07/17 03:48:37;;;;;;;8.67;6.03;;;16.10;19.20;;;;;;5054222;28;20457;-71
2022/07/17 03:51:04;;;;;;;9.50;6.37;;;16.10;19.20;;;;;;5063663;28;20464;-70
2022/07/17 03:53:32;;;;;;;7.87;5.30;;;16.10;19.00;;;;;;5065050;28;20461;-70
2022/07/17 03:55:59;;;;;;;9.93;6.07;;;16.10;19.40;;;;;;5048010;28;20478;-71
2022/07/17 03:58:25;;;;;;;7.73;6.10;;;16.10;19.40;;;;;;5047908;28;20812;-70
2022/07/17 04:00:52;;;;;;;12.70;6.80;;;16.10;19.30;;;;;;5064769;28;20638;-70
2022/07/17 04:03:19;;;;;;;7.97;5.60;;;16.10;19.40;;;;;;5068647;28;20522;-71
2022/07/17 04:05:46;;;;;;;10.33;5.87;;;16.10;19.20;;;;;;5048324;28;20492;-70
2022/07/17 04:08:13;;;;;;;8.10;5.70;;;16.10;19.30;;;;;;5047493;28;20462;-70
2022/07/17 04:10:41;;;;;;;8.57;5.60;;;16.10;19.40;;;;;;5063103;28;20954;-71
2022/07/17 04:13:08;;;;;;;9.20;5.60;;;16.10;19.20;;;;;;5052637;28;20464;-70
2022/07/17 04:15:55;;;;;;;9.43;5.87;;;16.10;19.20;;;;;;5046603;28;20556;-70
2022/07/17 04:18:23;;;;;;;11.00;4.47;;;16.10;19.40;;;;;;5050697;28;20515;-70
2022/07/17 04:20:51;;;;;;;7.30;5.27;;;16.10;19.20;;;;;;5064724;28;20461;-70
2022/07/17 04:23:18;;;;;;;11.90;6.83;;;16.20;19.10;;;;;;5056701;28;20462;-70
2022/07/17 04:25:46;;;;;;;9.27;6.10;;;16.20;19.00;;;;;;5045681;28;20710;-70
2022/07/17 04:28:14;;;;;;;12.30;7.67;;;16.20;19.00;;;;;;5047392;28;20469;-70
2022/07/17 04:30:41;;;;;;;9.83;6.20;;;16.20;18.90;;;;;;5058628;28;20641;-70
2022/07/17 04:33:08;;;;;;;7.67;5.60;;;16.30;18.80;;;;;;5047261;28;20976;-70
2022/07/17 04:35:35;;;;;;;7.40;5.03;;;16.40;18.80;;;;;;5054951;28;20482;-70
2022/07/17 04:38:02;;;;;;;6.80;4.57;;;17.00;18.40;;;;;;5052517;28;20457;-70
2022/07/17 04:40:29;;;;;;;5.53;3.90;;;17.80;17.00;;;;;;5050376;28;20462;-70
2022/07/17 04:42:57;;;;;;;6.30;4.20;;;18.60;15.40;;;;;;5052644;28;20833;-70
2022/07/17 04:45:24;;;;;;;8.30;4.60;;;19.50;13.70;;;;;;5031870;28;20915;-71
2022/07/17 04:47:51;;;;;;;7.80;4.93;;;19.70;12.90;;;;;;5046642;28;20832;-71
2022/07/17 04:50:18;;;;;;;7.07;4.73;;;19.40;13.10;;;;;;5050716;28;21083;-70
2022/07/17 04:52:45;;;;;;;6.63;5.13;;;19.30;13.30;;;;;;5057085;28;20477;-71
2022/07/17 04:55:12;;;;;;;8.67;4.97;;;19.10;13.60;;;;;;5053349;28;20853;-71
2022/07/17 04:57:39;;;;;;;7.97;4.77;;;18.90;14.40;;;;;;5037986;28;20479;-71
2022/07/17 05:00:09;;;;;;;8.23;5.10;;;19.80;13.90;;;;;;5045808;28;20881;-71
2022/07/17 05:02:36;;;;;;;11.03;5.17;;;21.20;11.70;;;;;;5053142;28;20470;-71
2022/07/17 05:05:04;;;;;;;8.67;4.73;;;22.50;9.40;;;;;;5046550;28;20477;-71
2022/07/17 05:07:31;;;;;;;6.33;4.40;;;23.80;7.30;;;;;;5045027;28;20485;-71
2022/07/17 05:09:58;;;;;;;7.67;4.10;;;24.80;5.30;;;;;;5056564;28;20460;-71
2022/07/17 05:12:24;;;;;;;7.00;4.00;;;25.70;3.40;;;;;;5067154;28;20471;-71
2022/07/17 05:14:51;;;;;;;7.03;4.60;;;26.60;2.50;;;;;;5066707;28;20481;-71
2022/07/17 05:17:19;;;;;;;9.27;4.57;;;27.40;1.30;;;;;;5066530;28;20472;-71
2022/07/17 05:19:46;;;;;;;7.00;3.90;;;28.20;1.00;;;;;;5046593;28;20462;-71
2022/07/17 05:22:13;;;;;;;8.67;4.97;;;28.90;1.00;;;;;;5046970;28;20947;-71
2022/07/17 05:24:40;;;;;;;5.27;3.83;;;29.60;1.00;;;;;;5062974;28;20461;-71
2022/07/17 05:27:07;;;;;;;6.57;3.53;;;30.30;1.00;;;;;;5033903;28;20859;-71
2022/07/17 05:29:34;;;;;;;5.80;3.90;;;31.00;1.00;;;;;;5045558;28;20466;-71
2022/07/17 05:32:00;;;;;;;6.73;4.10;;;31.70;1.00;;;;;;5046179;28;20474;-71
2022/07/17 05:34:29;;;;;;;5.70;3.60;;;32.30;1.00;;;;;;5063628;28;20453;-71
2022/07/17 05:36:55;;;;;;;5.33;3.70;;;32.90;1.00;;;;;;5046845;28;20464;-71
2022/07/17 05:39:22;;;;;;;4.70;2.90;;;33.50;1.00;;;;;;5045394;28;20509;-71
2022/07/17 05:41:49;;;;;;;6.90;3.47;;;34.00;1.00;;;;;;5058093;28;20488;-71
2022/07/17 05:44:16;;;;;;;5.20;3.10;;;34.60;1.00;;;;;;5042793;28;20469;-71
2022/07/17 05:46:43;;;;;;;5.47;3.70;;;35.20;1.00;;;;;;5041295;28;20481;-71
2022/07/17 05:49:10;;;;;;;5.67;3.43;;;35.80;1.00;;;;;;5049146;28;20454;-71
2022/07/17 05:51:38;;;;;;;5.80;2.93;;;36.40;1.00;;;;;;5049545;28;20484;-72
2022/07/17 05:54:05;;;;;;;5.30;3.30;;;36.90;1.00;;;;;;5049423;28;20465;-72
2022/07/17 05:56:31;;;;;;;6.00;3.27;;;37.50;1.00;;;;;;5049844;28;20473;-71
2022/07/17 05:58:58;;;;;;;6.10;3.90;;;37.90;1.00;;;;;;5049647;28;20462;-71
2022/07/17 06:01:25;;;;;;;4.10;2.83;;;38.50;1.00;;;;;;5048626;28;20470;-72
2022/07/17 06:03:52;;;;;;;6.40;3.60;;;38.90;1.00;;;;;;5049976;28;20466;-72
2022/07/17 06:06:18;;;;;;;5.73;3.57;;;39.30;1.00;;;;;;5051734;28;20496;-72
2022/07/17 06:08:47;;;;;;;5.57;3.50;;;39.70;1.00;;;;;;5070240;28;20469;-72
2022/07/17 06:11:13;;;;;;;5.57;3.70;;;40.40;1.00;;;;;;5055964;28;20462;-72
2022/07/17 06:13:40;;;;;;;5.10;2.87;;;40.80;1.00;;;;;;5061253;28;20987;-72
2022/07/17 06:16:08;;;;;;;5.27;2.93;;;41.30;1.00;;;;;;5049420;28;20994;-72
2022/07/17 06:18:35;;;;;;;6.03;3.10;;;41.80;1.00;;;;;;5036108;28;20469;-72
2022/07/17 06:21:02;;;;;;;4.27;2.67;;;42.10;1.00;;;;;;5048438;28;20855;-72
2022/07/17 06:23:28;;;;;;;5.67;2.80;;;42.30;1.00;;;;;;5049578;28;20466;-72
2022/07/17 06:25:56;;;;;;;5.00;2.97;;;42.80;1.00;;;;;;5048996;28;20481;-72
2022/07/17 06:28:23;;;;;;;4.33;2.70;;;43.30;1.00;;;;;;5055159;28;20560;-72
2022/07/17 06:30:50;;;;;;;4.23;2.47;;;43.50;1.00;;;;;;5061199;28;20473;-72
2022/07/17 06:33:17;;;;;;;6.57;2.80;;;43.90;1.00;;;;;;5048980;28;20866;-72
2022/07/17 06:35:44;;;;;;;3.93;2.23;;;44.60;1.00;;;;;;5049409;28;20482;-72
2022/07/17 06:38:10;;;;;;;5.03;2.83;;;44.60;1.00;;;;;;5049364;28;20450;-72
2022/07/17 06:40:46;;;;;;;6.33;2.90;;;45.00;1.00;;;;;;5049439;28;20473;-72
2022/07/17 06:43:14;;;;;;;5.63;2.90;;;45.30;1.00;;;;;;5042025;28;20461;-72
2022/07/17 06:45:41;;;;;;;5.00;2.80;;;45.50;1.00;;;;;;5048963;28;20486;-72
2022/07/17 06:48:08;;;;;;;4.60;3.00;;;45.50;1.00;;;;;;5049520;28;20481;-72
2022/07/17 06:50:35;;;;;;;6.27;2.20;;;46.00;1.00;;;;;;5055255;28;20892;-72
2022/07/17 06:53:02;;;;;;;4.70;2.37;;;46.40;1.00;;;;;;5049277;28;20464;-72
2022/07/17 06:55:29;;;;;;;4.73;2.40;;;46.80;1.00;;;;;;5054293;28;20487;-72
2022/07/17 06:57:56;;;;;;;4.80;2.73;;;46.90;1.00;;;;;;5051699;28;20462;-72
2022/07/17 07:00:24;;;;;;;4.20;2.20;;;47.50;1.00;;;;;;5051368;28;20453;-72
2022/07/17 07:02:51;;;;;;;5.77;2.50;;;47.90;1.00;;;;;;5048768;28;20476;-72
2022/07/17 07:05:18;;;;;;;4.50;2.37;;;48.40;1.00;;;;;;5045179;28;20485;-72
2022/07/17 07:07:45;;;;;;;4.57;2.73;;;48.80;1.00;;;;;;5049196;28;20481;-72
2022/07/17 07:10:12;;;;;;;4.13;2.30;;;49.30;1.00;;;;;;5047586;28;20462;-72
2022/07/17 07:12:38;;;;;;;3.67;2.30;;;49.70;1.00;;;;;;5045450;28;20834;-72
2022/07/17 07:15:07;;;;;;;5.63;2.53;;;50.30;1.00;;;;;;5044517;28;21577;-72
2022/07/17 07:17:36;;;;;;;4.77;2.47;;;50.80;1.00;;;;;;5049908;28;20457;-72
2022/07/17 07:20:04;;;;;;;4.03;2.30;;;51.00;1.00;;;;;;5050241;28;20454;-72
2022/07/17 07:22:31;;;;;;;6.50;2.37;;;51.40;1.00;;;;;;5045663;28;21151;-72
2022/07/17 07:24:58;;;;;;;6.13;2.60;;;51.70;1.00;;;;;;5043198;28;20482;-72
2022/07/17 07:27:25;;;;;;;4.37;2.00;;;52.20;1.00;;;;;;5048428;28;20484;-72
2022/07/17 07:29:52;;;;;;;4.17;2.13;;;52.50;1.00;;;;;;5047125;28;20527;-72
2022/07/17 07:32:18;;;;;;;5.20;2.10;;;52.70;1.00;;;;;;5045412;28;20478;-72
2022/07/17 07:34:46;;;;;;;4.30;2.50;;;53.10;1.00;;;;;;5043577;28;20465;-73
2022/07/17 07:37:13;;;;;;;5.53;2.30;;;53.30;1.00;;;;;;5046700;28;20458;-73
2022/07/17 07:39:40;;;;;;;4.40;2.27;;;53.60;1.00;;;;;;5047666;28;20837;-73
2022/07/17 07:42:07;;;;;;;3.97;1.93;;;53.50;1.00;;;;;;5046111;28;20466;-72
2022/07/17 07:44:35;;;;;;;4.30;2.27;;;53.80;1.00;;;;;;5046054;28;20515;-73
2022/07/17 07:47:02;;;;;;;3.60;2.10;;;53.70;1.00;;;;;;5045723;28;20481;-73
2022/07/17 07:49:29;;;;;;;5.60;2.40;;;53.70;1.00;;;;;;5045718;28;21082;-72
2022/07/17 07:51:57;;;;;;;4.47;2.60;;;53.80;1.00;;;;;;5047167;28;20478;-73
2022/07/17 07:54:24;;;;;;;4.07;2.40;;;53.60;1.00;;;;;;5046718;28;21037;-73
2022/07/17 07:56:51;;;;;;;6.67;2.60;;;54.10;1.00;;;;;;5041279;28;20477;-73
2022/07/17 07:59:18;;;;;;;4.20;2.30;;;54.50;1.00;;;;;;5048214;28;20966;-73
2022/07/17 08:01:44;;;;;;;4.37;1.90;;;54.60;1.00;;;;;;5050063;28;20853;-73
2022/07/17 08:04:11;;;;;;;4.80;2.30;;;54.30;1.00;;;;;;5048875;28;20461;-73
2022/07/17 08:06:39;;;;;;;3.43;1.90;;;54.60;1.00;;;;;;5043073;28;21005;-73
2022/07/17 08:09:07;;;;;;;4.27;2.30;;;55.20;1.00;;;;;;5042207;28;20454;-73
2022/07/17 08:11:33;;;;;;;5.10;2.20;;;55.30;1.00;;;;;;5042226;28;20472;-73
2022/07/17 08:14:00;;;;;;;3.83;2.27;;;55.50;1.00;;;;;;5044892;28;20468;-73
2022/07/17 08:16:27;;;;;;;4.87;2.30;;;55.90;1.00;;;;;;5043150;28;20572;-73
2022/07/17 08:18:54;;;;;;;3.93;2.00;;;55.90;1.00;;;;;;5047092;28;20489;-73
2022/07/17 08:21:22;;;;;;;3.77;2.20;;;56.50;1.00;;;;;;5045408;28;20462;-73
2022/07/17 08:23:49;;;;;;;3.37;1.67;;;56.80;1.00;;;;;;5048621;28;20203;-73
2022/07/17 08:26:17;;;;;;;4.43;2.03;;;56.50;1.00;;;;;;5049426;28;21036;-73
2022/07/17 08:28:44;;;;;;;7.13;2.10;;;57.10;1.00;;;;;;5049703;28;20467;-73
2022/07/17 08:31:11;;;;;;;2.90;1.60;;;57.60;1.00;;;;;;5045257;28;20501;-74
2022/07/17 08:33:38;;;;;;;3.70;1.87;;;57.90;1.00;;;;;;5046717;28;20464;-74
2022/07/17 08:36:05;;;;;;;3.37;1.93;;;58.30;1.00;;;;;;5060910;28;20839;-74
2022/07/17 08:38:32;;;;;;;2.75;1.40;;;58.40;1.00;;;;;;5049703;28;20221;-74
2022/07/17 08:40:59;;;;;;;4.00;1.87;;;58.40;1.00;;;;;;5047928;28;20215;-73
2022/07/17 08:43:27;;;;;;;4.72;1.92;;;58.70;1.00;;;;;;5047209;28;20803;-73
2022/07/17 08:45:55;;;;;;;3.08;1.48;;;58.80;1.00;;;;;;5055454;28;20253;-73
2022/07/17 08:48:21;;;;;;;3.75;1.98;;;59.10;1.00;;;;;;5058432;28;20219;-73
2022/07/17 08:50:55;;;;;;;3.90;1.92;;;59.40;1.00;;;;;;5048123;28;20209;-73
2022/07/17 08:53:22;;;;;;;4.60;1.95;;;59.50;1.00;;;;;;5047137;28;20207;-73
2022/07/17 08:55:49;;;;;;;4.90;1.80;;;59.30;1.00;;;;;;5046753;28;20215;-73
2022/07/17 08:58:17;;;;;;;4.13;1.63;;;59.50;1.00;;;;;;5046652;28;20187;-73
2022/07/17 09:00:45;;;;;;;5.13;2.05;;;59.50;1.00;;;;;;5046916;28;20230;-73
2022/07/17 09:03:14;;;;;;;3.65;1.63;;;59.80;1.00;;;;;;5067890;28;20206;-74
2022/07/17 09:05:43;;;;;;;4.78;1.58;;;59.80;1.00;;;;;;5066842;28;20230;-73
2022/07/17 09:08:17;;;;;;;4.38;1.85;;;59.70;1.00;;;;;;5059720;28;20219;-73
2022/07/17 09:10:46;;;;;;;7.43;1.52;;;59.90;1.00;;;;;;5044986;28;20202;-73
2022/07/17 09:13:18;;;;;;;3.72;2.00;;;59.80;1.00;;;;;;5047043;28;20214;-73
2022/07/17 09:15:47;;;;;;;4.47;1.63;;;59.50;1.00;;;;;;5049647;28;20705;-73
2022/07/17 09:18:15;;;;;;;3.50;1.52;;;59.20;1.00;;;;;;5049802;28;20218;-73
2022/07/17 09:20:46;;;;;;;3.55;1.80;;;58.20;1.00;;;;;;5055404;28;20199;-73
2022/07/17 09:23:13;;;;;;;3.30;1.70;;;57.60;1.00;;;;;;5050747;28;20272;-73
2022/07/17 09:25:42;;;;;;;3.53;1.87;;;57.30;1.00;;;;;;5069552;28;20314;-73
2022/07/17 09:28:10;;;;;;;3.63;1.50;;;57.30;1.00;;;;;;5066692;28;20223;-73
2022/07/17 09:30:40;;;;;;;3.77;1.50;;;57.00;1.00;;;;;;5049549;28;20222;-73
2022/07/17 09:33:13;;;;;;;3.60;1.60;;;56.10;1.00;;;;;;5051400;28;20470;-73
2022/07/17 09:35:46;;;;;;;5.17;2.27;;;55.00;1.00;;;;;;5050353;28;20485;-74
2022/07/17 09:38:14;;;;;;;5.10;2.10;;;55.00;1.00;;;;;;5053237;28;20953;-73
2022/07/17 09:43:25;;;;;;;3.47;1.83;;;54.80;1.00;;;;;;5055278;28;20681;-73
2022/07/17 09:45:52;;;;;;;4.13;1.70;;;52.60;1.00;;;;;;5070192;28;20480;-73
2022/07/17 09:48:20;;;;;;;5.27;2.00;;;50.10;1.00;;;;;;5070618;28;20484;-73
2022/07/17 09:50:47;;;;;;;3.23;1.70;;;48.10;1.00;;;;;;5070017;28;20465;-73
2022/07/17 09:53:16;;;;;;;4.10;2.17;;;46.30;1.00;;;;;;5049622;28;20468;-74
2022/07/17 09:55:44;;;;;;;4.20;1.80;;;44.60;1.00;;;;;;5061848;28;20477;-73
2022/07/17 09:58:12;;;;;;;3.53;1.50;;;43.10;1.00;;;;;;5052021;28;20450;-73
2022/07/17 10:00:40;;;;;;;6.87;2.00;;;41.40;1.00;;;;;;5049449;28;20500;-73
2022/07/17 10:03:07;;;;;;;4.40;1.93;;;40.00;1.00;;;;;;5049227;28;20554;-73
2022/07/17 10:05:35;;;;;;;5.83;2.40;;;39.00;1.00;;;;;;5049411;28;20477;-73
2022/07/17 10:08:02;;;;;;;5.27;2.30;;;37.90;1.00;;;;;;5064830;28;21060;-73
2022/07/17 10:10:30;;;;;;;6.40;2.30;;;36.80;1.00;;;;;;5070111;28;21001;-73
2022/07/17 10:12:57;;;;;;;4.47;2.03;;;35.90;1.00;;;;;;5054221;28;20465;-74
2022/07/17 10:15:26;;;;;;;5.47;2.20;;;35.20;1.00;;;;;;5055921;28;20867;-73
2022/07/17 10:18:04;;;;;;;4.40;2.03;;;34.60;1.00;;;;;;5048935;28;20490;-73
2022/07/17 10:20:31;;;;;;;4.80;2.47;;;34.10;1.00;;;;;;5050005;28;21103;-73
2022/07/17 10:22:59;;;;;;;4.00;2.00;;;33.40;1.00;;;;;;5060705;28;20466;-73
2022/07/17 10:25:26;;;;;;;5.40;2.13;;;32.80;1.00;;;;;;5050177;28;20478;-73
2022/07/17 10:27:55;;;;;;;6.17;2.13;;;32.20;1.00;;;;;;5049422;28;20488;-73
2022/07/17 10:30:26;;;;;;;4.03;2.13;;;31.60;1.00;;;;;;5051879;28;20553;-73
2022/07/17 10:32:54;;;;;;;4.57;2.10;;;31.20;1.00;;;;;;5060258;23;20450;-59
2022/07/17 10:35:21;;;;;;;5.33;2.30;;;31.10;1.00;;;;;;5059129;28;20488;-61
2022/07/17 10:37:47;;;;;;;4.23;2.27;;;30.80;1.00;;;;;;5053603;28;20457;-64
2022/07/17 10:40:19;;;;;;;5.40;2.40;;;30.50;1.00;;;;;;5058947;28;20470;-62
2022/07/17 10:42:56;;;;;;;4.37;2.43;;;30.40;1.00;;;;;;5070141;28;20456;-64
2022/07/17 10:45:25;;;;;;;5.80;2.10;;;30.40;1.00;;;;;;5059049;28;20620;-62
2022/07/17 10:47:55;;;;;;;4.57;2.20;;;30.30;1.00;;;;;;5066516;22;21131;-73
2022/07/17 10:50:42;;;;;;;4.70;2.60;;;30.10;1.00;;;;;;5049807;28;20462;-73
2022/07/17 10:53:13;;;;;;;5.10;2.50;;;29.80;1.00;;;;;;5050650;28;20954;-73
2022/07/17 10:55:58;;;;;;;4.60;2.33;;;29.70;1.00;;;;;;5050240;28;20478;-73
2022/07/17 10:58:27;;;;;;;6.27;2.00;;;29.70;1.00;;;;;;5050052;28;20458;-72
2022/07/17 11:04:15;;;;;;;7.20;2.27;;;29.80;1.00;;;;;;5053475;28;20467;-72
2022/07/17 11:06:42;;;;;;;5.77;2.40;;;29.80;1.00;;;;;;5047034;28;20481;-72
2022/07/17 11:09:11;;;;;;;4.00;1.63;;;29.80;1.00;;;;;;5048841;28;20489;-72
2022/07/17 11:11:41;;;;;;;7.07;2.00;;;29.80;1.00;;;;;;5049454;28;20468;-72
2022/07/17 11:14:10;;;;;;;4.90;2.50;;;29.80;1.00;;;;;;5049115;28;20466;-73
2022/07/17 11:16:37;;;;;;;5.63;2.20;;;29.60;1.00;;;;;;5049101;28;20481;-72
2022/07/17 11:22:26;;;;;;;4.37;2.20;;;29.40;1.00;;;;;;5051205;28;20417;-72
2022/07/17 11:24:53;;;;;;;4.60;2.40;;;29.40;1.00;;;;;;5048855;28;20482;-72
2022/07/17 11:27:23;;;;;;;5.13;2.50;;;29.40;1.00;;;;;;5038434;28;20466;-73
2022/07/17 11:29:52;;;;;;;5.50;2.13;;;29.50;1.00;;;;;;5046390;28;20462;-73
2022/07/17 11:32:19;;;;;;;4.27;1.83;;;29.50;1.00;;;;;;5048302;28;20497;-73
2022/07/17 11:34:46;;;;;;;4.40;2.13;;;29.30;1.00;;;;;;5048607;28;20462;-73
2022/07/17 11:37:13;;;;;;;5.70;2.50;;;29.20;1.00;;;;;;5048354;28;20458;-73
2022/07/17 11:39:42;;;;;;;5.10;2.00;;;29.10;1.00;;;;;;5048578;28;20488;-73
2022/07/17 11:42:10;;;;;;;7.60;2.10;;;29.10;1.00;;;;;;5048147;28;20504;-73
2022/07/17 11:44:39;;;;;;;4.53;2.40;;;29.10;1.00;;;;;;5048340;28;21090;-73
2022/07/17 11:53:51;;;;;;;4.03;1.87;;;29.20;1.00;;;;;;5046131;28;20488;-73
2022/07/17 11:56:21;;;;;;;6.30;2.20;;;29.20;1.00;;;;;;5048362;28;20543;-73
2022/07/17 11:58:48;;;;;;;3.87;1.73;;;29.20;1.00;;;;;;5047688;28;20826;-73
2022/07/17 12:01:17;;;;;;;4.47;1.73;;;29.20;1.00;;;;;;5047888;28;20473;-73
2022/07/17 12:03:44;;;;;;;7.30;2.30;;;29.30;1.00;;;;;;5048031;28;20474;-73
2022/07/17 12:06:11;;;;;;;5.70;2.23;;;29.20;1.00;;;;;;5047679;28;21109;-73
2022/07/17 12:08:37;;;;;;;4.20;2.00;;;29.20;1.00;;;;;;5049227;28;20525;-73
2022/07/17 12:11:06;;;;;;;5.47;2.33;;;29.20;1.00;;;;;;5058089;28;20473;-73
2022/07/17 12:13:42;;;;;;;3.90;1.80;;;29.10;1.00;;;;;;5047093;28;20461;-73
2022/07/17 12:16:25;;;;;;;3.97;1.60;;;29.00;1.00;;;;;;5035139;28;20589;-73
2022/07/17 12:19:03;;;;;;;4.60;1.70;;;28.90;1.00;;;;;;5048756;28;20454;-72
2022/07/17 12:21:30;;;;;;;5.90;2.17;;;28.80;1.00;;;;;;5047873;28;20458;-73
2022/07/17 12:23:59;;;;;;;7.27;1.80;;;28.80;1.00;;;;;;5047043;28;20539;-73
2022/07/17 12:26:26;;;;;;;4.40;2.23;;;28.70;1.00;;;;;;5045402;28;20517;-73
2022/07/17 12:28:53;;;;;;;5.00;1.87;;;28.70;1.00;;;;;;5048298;28;20493;-73
2022/07/17 12:31:20;;;;;;;4.20;2.10;;;28.70;1.00;;;;;;5046627;28;20480;-72
2022/07/17 12:33:48;;;;;;;4.57;2.47;;;28.70;1.00;;;;;;5048249;28;20462;-72
2022/07/17 12:36:15;;;;;;;6.50;2.00;;;28.70;1.00;;;;;;5046814;28;20518;-72
2022/07/17 12:38:42;;;;;;;5.13;1.90;;;28.70;1.00;;;;;;5048001;28;20458;-72
2022/07/17 12:41:09;;;;;;;6.97;2.10;;;28.70;1.00;;;;;;5048022;28;20469;-72
2022/07/17 12:43:36;;;;;;;6.83;1.83;;;28.80;1.00;;;;;;5048155;28;20957;-71
2022/07/17 12:46:03;;;;;;;4.13;1.57;;;28.70;1.00;;;;;;5046706;28;20481;-73
2022/07/17 12:48:30;;;;;;;4.20;2.03;;;28.70;1.00;;;;;;5047243;28;20489;-73
2022/07/17 12:50:58;;;;;;;4.13;2.20;;;28.70;1.00;;;;;;5041196;28;20478;-71
2022/07/17 12:53:25;;;;;;;4.37;1.87;;;28.70;1.00;;;;;;5053871;28;20461;-72
2022/07/17 12:55:52;;;;;;;7.40;1.90;;;28.70;1.00;;;;;;5033052;28;20485;-73
2022/07/17 12:58:19;;;;;;;4.57;2.13;;;28.80;1.00;;;;;;5051237;28;20461;-72
2022/07/17 13:00:45;;;;;;;4.00;1.93;;;28.80;1.00;;;;;;5061266;28;20461;-72
2022/07/17 13:03:12;;;;;;;5.43;1.70;;;28.70;1.00;;;;;;5055434;28;20457;-71
2022/07/17 13:05:54;;;;;;;4.20;2.20;;;28.60;1.00;;;;;;5053726;28;20479;-72
2022/07/17 13:08:22;;;;;;;4.37;1.83;;;28.60;1.00;;;;;;5055517;28;20485;-72
2022/07/17 13:10:49;;;;;;;4.80;2.00;;;28.70;1.00;;;;;;5063507;28;20556;-72
2022/07/17 13:13:16;;;;;;;5.57;1.80;;;28.60;1.00;;;;;;5053725;28;20943;-72